• Join FlightAware (Why Join?)
  • Login
  • US Flag 
10:08AM EDT


 

Airport Tracker/Info


-or-


 

Live Flight TrackerFlight Track Log ✈ RPA3321 ✈ 24-Jun-2013 ✈ KALB - KDCA

Flight Track Log - Related Links

Times and Time Zones

All times are in EDT time to prevent confusion due to time zone crossing. See the RPA3321 flight status page for this flight to view local times or setup timezone preferences in your user account.

Time Position Orientation Groundspeed Altitude Reporting Facility
EDT Latitude Longitude Course Direction KTS MPH feet Rate Location/Type
05:39AM 42.7256 -73.8053 166° South 151 174 1,300  Level Boston Center
05:40AM 42.6964 -73.8214 202° Southwest 177 204 2,200 1,920 Climbing Boston Center
05:42AM 42.4273 -74.0872 180° South  Level Estimated
05:42AM 42.7578 -73.9106 313° West 225 259 6,200  Level Boston Center
05:43AM 42.3467 -74.1581 172° South  Level Estimated
05:43AM 42.7669 -73.9900 279° West 205 236 9,200  Level Boston Center
05:44AM 42.2661 -74.2287 172° South  Level Estimated
05:44AM 42.7658 -74.0775 269° West 216 249 11,700  Level Boston Center
05:45AM 42.1854 -74.2992 166° South  Level Estimated
05:45AM 42.6861 -74.1094 196° South 210 242 13,200  Level Boston Center
05:46AM 42.5889 -74.0561 158° South 326 375 15,900 2,160 Climbing Boston Center
05:47AM 42.5167 -74.0147 157° South 332 382 17,600 2,160 Climbing Boston Center
05:48AM 42.4050 -73.9556 159° South 351 404 20,300 2,220 Climbing Boston Center
05:49AM 42.3117 -73.9028 157° South 356 410 22,100 1,740 Climbing Boston Center
05:50AM 42.2144 -73.8500 158° South 366 421 23,800 1,620 Climbing Boston Center
05:51AM 42.1131 -73.7975 159° South 378 435 25,400 1,080 Climbing Boston Center
05:52AM 42.0128 -73.8233 191° South 359 413 26,000 300 Climbing Boston Center
05:53AM 41.9119 -73.8711 199° South 368 423 26,000  Level Boston Center
05:55AM 41.7328 -73.9567 200° South 386 444 26,000  Level New York Center
05:56AM 41.6339 -74.0044 200° South 386 444 26,000  Level New York Center
05:57AM 41.5283 -74.0519 199° South 377 434 26,000  Level New York Center
05:58AM 41.4311 -74.0997 200° South 377 434 26,000  Level New York Center
05:59AM 41.3319 -74.1475 200° South 377 434 26,000  Level New York Center
06:00AM 41.2392 -74.1925 200° South 377 434 26,000  Level New York Center
06:01AM 41.1358 -74.2367 198° South 377 434 26,000  Level New York Center
06:02AM 41.0364 -74.2811 199° South 377 434 26,000  Level New York Center
06:03AM 40.9392 -74.3311 201° Southwest 382 440 26,000  Level New York Center
06:04AM 40.8458 -74.3864 204° Southwest 377 434 26,000  Level New York Center
06:05AM 40.7761 -74.4869 228° Southwest 366 421 26,000  Level New York Center
06:06AM 40.7061 -74.5872 227° Southwest 371 427 26,000  Level New York Center
06:07AM 40.6428 -74.6767 227° Southwest 380 437 26,000  Level New York Center
06:08AM 40.5728 -74.7764 227° Southwest 380 437 26,000  Level New York Center
06:09AM 40.5006 -74.8758 226° Southwest 380 437 26,000  Level New York Center
06:10AM 40.4306 -74.9753 227° Southwest 380 437 26,000  Level New York Center
06:11AM 40.3581 -75.0717 225° Southwest 385 443 26,000 -300 Level New York Center
06:12AM 40.2856 -75.1733 227° Southwest 385 443 25,400 -960 Descending New York Center
06:13AM 40.2153 -75.2694 226° Southwest 385 443 24,100 -1,320 Descending New York Center
06:14AM 40.1469 -75.3656 227° Southwest 380 437 22,800 -1,080 Descending New York Center
06:15AM 40.0808 -75.4561 226° Southwest 375 432 22,000 -420 Descending New York Center
06:16AM 40.0167 -75.5519 229° Southwest 363 418 22,000  Level New York Center
06:17AM 39.9564 -75.6508 232° Southwest 358 412 22,000 -300 Level New York Center
06:18AM 39.8917 -75.7492 229° Southwest 358 412 21,500 -780 Descending New York Center
06:19AM 39.8225 -75.8550 230° Southwest 371 427 20,500 -1,020 Descending New York Center
06:20AM 39.7511 -75.9633 229° Southwest 388 447 19,500 -1,020 Descending New York Center
06:21AM 39.6842 -76.0636 229° Southwest 388 447 18,500 -1,740 Descending New York Center
06:23AM 39.5167 -76.3000 227° Southwest 367 422 14,000 -2,040 Descending Potomac TRACON
06:24AM 39.4667 -76.4000 237° Southwest 362 417 12,100 -1,800 Descending Potomac TRACON
06:25AM 39.3833 -76.4833 218° Southwest 362 417 10,400 -1,200 Descending Potomac TRACON
06:26AM 39.3167 -76.5333 210° Southwest 358 412 10,000 -240 Descending Potomac TRACON
06:27AM 39.2333 -76.6167 218° Southwest 357 411 10,000  Level Potomac TRACON
06:28AM 39.1667 -76.6833 218° Southwest 307 353 10,000  Level Potomac TRACON
06:29AM 39.1333 -76.7667 243° Southwest 285 328 10,000 -480 Level Potomac TRACON
06:30AM 39.1167 -76.8500 256° West 285 328 9,100 -1,080 Descending Potomac TRACON
06:31AM 39.0833 -76.9500 247° West 280 322 8,000 -1,380 Descending Potomac TRACON
06:32AM 39.0500 -77.0333 243° Southwest 276 318 6,400 -2,100 Descending Potomac TRACON
06:33AM 39.0167 -77.1333 247° West 265 305 3,900 -1,800 Descending Potomac TRACON
06:33AM 38.9833 -77.1667 218° Southwest 255 293 3,000 -960 Descending Potomac TRACON
06:34AM 38.9333 -77.1167 142° Southeast 200 230 2,100 -900 Descending Potomac TRACON
06:35AM 38.9000 -77.0833 142° Southeast 177 204 1,300 -900 Descending Potomac TRACON
06:36AM 38.8833 -77.0500 123° Southeast 135 155 500 -840 Descending Potomac TRACON